sensor_id;sensor_type;location;lat;lon;timestamp;pressure;altitude;pressure_sealevel;temperature;humidity
68941;BME280;55982;51.476;7.552;2023-02-20T00:00:34;100779.16;;;4.85;100.00
68941;BME280;55982;51.476;7.552;2023-02-20T00:03:01;100776.56;;;4.86;100.00
68941;BME280;55982;51.476;7.552;2023-02-20T00:05:26;100769.66;;;4.82;100.00
68941;BME280;55982;51.476;7.552;2023-02-20T00:07:51;100776.56;;;4.80;100.00
68941;BME280;55982;51.476;7.552;2023-02-20T00:10:17;100769.63;;;4.79;100.00
68941;BME280;55982;51.476;7.552;2023-02-20T00:12:42;100769.63;;;4.76;100.00
68941;BME280;55982;51.476;7.552;2023-02-20T00:15:07;100759.22;;;4.73;100.00
68941;BME280;55982;51.476;7.552;2023-02-20T00:17:33;100756.66;;;4.79;100.00
68941;BME280;55982;51.476;7.552;2023-02-20T00:19:59;100753.16;;;4.73;100.00
68941;BME280;55982;51.476;7.552;2023-02-20T00:22:24;100745.41;;;4.77;100.00
68941;BME280;55982;51.476;7.552;2023-02-20T00:24:50;100733.31;;;4.76;100.00
68941;BME280;55982;51.476;7.552;2023-02-20T00:27:15;100729.00;;;4.75;100.00
68941;BME280;55982;51.476;7.552;2023-02-20T00:29:42;100724.72;;;4.83;100.00
68941;BME280;55982;51.476;7.552;2023-02-20T00:32:07;100723.00;;;4.82;100.00
68941;BME280;55982;51.476;7.552;2023-02-20T00:34:33;100730.78;;;4.85;100.00
68941;BME280;55982;51.476;7.552;2023-02-20T00:36:58;100720.44;;;4.90;100.00
68941;BME280;55982;51.476;7.552;2023-02-20T00:39:23;100723.88;;;4.89;100.00
68941;BME280;55982;51.476;7.552;2023-02-20T00:41:48;100719.59;;;4.95;100.00
68941;BME280;55982;51.476;7.552;2023-02-20T00:44:14;100717.88;;;5.00;100.00
68941;BME280;55982;51.476;7.552;2023-02-20T00:46:39;100719.59;;;5.04;100.00
68941;BME280;55982;51.476;7.552;2023-02-20T00:49:04;100711.81;;;5.07;100.00
68941;BME280;55982;51.476;7.552;2023-02-20T00:51:30;100713.56;;;5.11;100.00
68941;BME280;55982;51.476;7.552;2023-02-20T00:53:56;100709.25;;;5.12;100.00
68941;BME280;55982;51.476;7.552;2023-02-20T00:56:22;100714.44;;;5.13;100.00
68941;BME280;55982;51.476;7.552;2023-02-20T00:58:47;100706.69;;;5.15;100.00
68941;BME280;55982;51.476;7.552;2023-02-20T01:01:12;100701.50;;;5.18;100.00
68941;BME280;55982;51.476;7.552;2023-02-20T01:03:39;100702.38;;;5.18;100.00
68941;BME280;55982;51.476;7.552;2023-02-20T01:06:04;100695.44;;;5.17;100.00
68941;BME280;55982;51.476;7.552;2023-02-20T01:08:29;100692.00;;;5.21;100.00
68941;BME280;55982;51.476;7.552;2023-02-20T01:10:55;100697.19;;;5.21;100.00
68941;BME280;55982;51.476;7.552;2023-02-20T01:13:20;100688.53;;;5.19;100.00
68941;BME280;55982;51.476;7.552;2023-02-20T01:15:45;100682.47;;;5.17;100.00
68941;BME280;55982;51.476;7.552;2023-02-20T01:18:10;100676.44;;;5.21;100.00
68941;BME280;55982;51.476;7.552;2023-02-20T01:20:35;100666.06;;;5.21;100.00
68941;BME280;55982;51.476;7.552;2023-02-20T01:23:01;100664.34;;;5.23;100.00
68941;BME280;55982;51.476;7.552;2023-02-20T01:25:26;100670.38;;;5.25;100.00
68941;BME280;55982;51.476;7.552;2023-02-20T01:27:51;100669.50;;;5.26;100.00
68941;BME280;55982;51.476;7.552;2023-02-20T01:30:17;100658.28;;;5.29;100.00
68941;BME280;55982;51.476;7.552;2023-02-20T01:32:42;100666.94;;;5.32;100.00
68941;BME280;55982;51.476;7.552;2023-02-20T01:35:07;100658.31;;;5.32;100.00
68941;BME280;55982;51.476;7.552;2023-02-20T01:37:33;100655.69;;;5.36;100.00
68941;BME280;55982;51.476;7.552;2023-02-20T01:39:58;100655.72;;;5.39;100.00
68941;BME280;55982;51.476;7.552;2023-02-20T01:42:24;100651.38;;;5.44;100.00
68941;BME280;55982;51.476;7.552;2023-02-20T01:44:50;100645.34;;;5.48;100.00
68941;BME280;55982;51.476;7.552;2023-02-20T01:47:16;100648.78;;;5.47;100.00
68941;BME280;55982;51.476;7.552;2023-02-20T01:50:00;100659.16;;;5.47;100.00
68941;BME280;55982;51.476;7.552;2023-02-20T01:52:31;100648.81;;;5.50;100.00
68941;BME280;55982;51.476;7.552;2023-02-20T01:54:58;100645.31;;;5.51;100.00
68941;BME280;55982;51.476;7.552;2023-02-20T01:57:26;100654.00;;;5.56;100.00
68941;BME280;55982;51.476;7.552;2023-02-20T01:59:53;100646.22;;;5.58;100.00
68941;BME280;55982;51.476;7.552;2023-02-20T02:02:20;100630.63;;;5.59;100.00
68941;BME280;55982;51.476;7.552;2023-02-20T02:04:46;100628.91;;;5.60;100.00
68941;BME280;55982;51.476;7.552;2023-02-20T02:07:12;100629.78;;;5.61;100.00
68941;BME280;55982;51.476;7.552;2023-02-20T02:09:55;100622.84;;;5.63;100.00
68941;BME280;55982;51.476;7.552;2023-02-20T02:12:23;100621.09;;;5.62;100.00
68941;BME280;55982;51.476;7.552;2023-02-20T02:14:48;100614.19;;;5.64;100.00
68941;BME280;55982;51.476;7.552;2023-02-20T02:27:39;100578.72;;;5.66;100.00
68941;BME280;55982;51.476;7.552;2023-02-20T02:40:56;100537.16;;;5.78;100.00
68941;BME280;55982;51.476;7.552;2023-02-20T02:43:32;100535.44;;;5.77;100.00
68941;BME280;55982;51.476;7.552;2023-02-20T02:46:09;100544.09;;;5.73;100.00
68941;BME280;55982;51.476;7.552;2023-02-20T02:48:44;100524.22;;;5.66;100.00
68941;BME280;55982;51.476;7.552;2023-02-20T02:51:15;100525.97;;;5.54;100.00
68941;BME280;55982;51.476;7.552;2023-02-20T02:53:41;100535.47;;;5.55;100.00
68941;BME280;55982;51.476;7.552;2023-02-20T02:56:08;100544.13;;;5.56;100.00
68941;BME280;55982;51.476;7.552;2023-02-20T02:58:51;100534.59;;;5.59;100.00
68941;BME280;55982;51.476;7.552;2023-02-20T03:01:18;100532.03;;;5.52;100.00
68941;BME280;55982;51.476;7.552;2023-02-20T03:03:44;100529.41;;;5.53;100.00
68941;BME280;55982;51.476;7.552;2023-02-20T03:06:11;100526.81;;;5.47;100.00
68941;BME280;55982;51.476;7.552;2023-02-20T03:08:41;100520.78;;;5.48;100.00
68941;BME280;55982;51.476;7.552;2023-02-20T03:11:12;100526.81;;;5.63;100.00
68941;BME280;55982;51.476;7.552;2023-02-20T03:13:39;100522.50;;;5.58;100.00
68941;BME280;55982;51.476;7.552;2023-02-20T03:16:29;100511.25;;;5.56;100.00
68941;BME280;55982;51.476;7.552;2023-02-20T03:18:56;100515.59;;;5.54;100.00
68941;BME280;55982;51.476;7.552;2023-02-20T03:21:24;100506.09;;;5.49;100.00
68941;BME280;55982;51.476;7.552;2023-02-20T03:23:52;100510.38;;;5.51;100.00
68941;BME280;55982;51.476;7.552;2023-02-20T03:26:19;100512.13;;;5.52;100.00
68941;BME280;55982;51.476;7.552;2023-02-20T03:28:55;100510.41;;;5.54;100.00
68941;BME280;55982;51.476;7.552;2023-02-20T03:33:57;100508.66;;;5.53;100.00
68941;BME280;55982;51.476;7.552;2023-02-20T03:36:47;100510.38;;;5.61;100.00
68941;BME280;55982;51.476;7.552;2023-02-20T03:39:35;100500.88;;;5.63;100.00
68941;BME280;55982;51.476;7.552;2023-02-20T03:42:20;100503.47;;;5.59;100.00
68941;BME280;55982;51.476;7.552;2023-02-20T03:45:05;100489.63;;;5.61;100.00
68941;BME280;55982;51.476;7.552;2023-02-20T03:47:32;100500.00;;;5.61;100.00
68941;BME280;55982;51.476;7.552;2023-02-20T03:49:59;100496.53;;;5.65;100.00
68941;BME280;55982;51.476;7.552;2023-02-20T03:52:25;100491.34;;;5.65;100.00
68941;BME280;55982;51.476;7.552;2023-02-20T03:54:51;100486.13;;;5.68;100.00
68941;BME280;55982;51.476;7.552;2023-02-20T03:57:21;100491.31;;;5.74;100.00
68941;BME280;55982;51.476;7.552;2023-02-20T03:59:49;100483.53;;;5.69;100.00
68941;BME280;55982;51.476;7.552;2023-02-20T04:02:22;100494.81;;;5.67;100.00
68941;BME280;55982;51.476;7.552;2023-02-20T04:04:50;100491.34;;;5.65;100.00
68941;BME280;55982;51.476;7.552;2023-02-20T04:07:18;100494.78;;;5.64;100.00
68941;BME280;55982;51.476;7.552;2023-02-20T04:09:45;100489.59;;;5.64;100.00
68941;BME280;55982;51.476;7.552;2023-02-20T04:12:19;100496.53;;;5.62;100.00
68941;BME280;55982;51.476;7.552;2023-02-20T04:14:46;100492.22;;;5.67;100.00
68941;BME280;55982;51.476;7.552;2023-02-20T04:17:13;100488.78;;;5.57;100.00
68941;BME280;55982;51.476;7.552;2023-02-20T04:19:40;100496.56;;;5.52;100.00
68941;BME280;55982;51.476;7.552;2023-02-20T04:22:05;100487.91;;;5.47;100.00
68941;BME280;55982;51.476;7.552;2023-02-20T04:24:34;100493.09;;;5.50;100.00
68941;BME280;55982;51.476;7.552;2023-02-20T04:27:01;100493.09;;;5.50;100.00
68941;BME280;55982;51.476;7.552;2023-02-20T04:29:26;100495.69;;;5.46;100.00
68941;BME280;55982;51.476;7.552;2023-02-20T04:31:52;100487.91;;;5.47;100.00
68941;BME280;55982;51.476;7.552;2023-02-20T04:34:17;100491.34;;;5.49;100.00
68941;BME280;55982;51.476;7.552;2023-02-20T04:36:42;100486.22;;;5.43;100.00
68941;BME280;55982;51.476;7.552;2023-02-20T04:39:08;100477.56;;;5.38;100.00
68941;BME280;55982;51.476;7.552;2023-02-20T04:41:33;100481.03;;;5.43;100.00
68941;BME280;55982;51.476;7.552;2023-02-20T04:43:58;100481.03;;;5.31;100.00
68941;BME280;55982;51.476;7.552;2023-02-20T04:46:58;100478.41;;;5.46;100.00
68941;BME280;55982;51.476;7.552;2023-02-20T04:49:24;100472.34;;;5.44;100.00
68941;BME280;55982;51.476;7.552;2023-02-20T04:51:49;100461.09;;;5.48;100.00
68941;BME280;55982;51.476;7.552;2023-02-20T04:54:14;100461.13;;;5.45;100.00
68941;BME280;55982;51.476;7.552;2023-02-20T04:56:39;100451.59;;;5.50;100.00
68941;BME280;55982;51.476;7.552;2023-02-20T04:59:05;100444.66;;;5.49;100.00
68941;BME280;55982;51.476;7.552;2023-02-20T05:01:30;100459.34;;;5.47;100.00
68941;BME280;55982;51.476;7.552;2023-02-20T05:03:55;100455.03;;;5.49;100.00
68941;BME280;55982;51.476;7.552;2023-02-20T05:06:20;100448.13;;;5.48;100.00
68941;BME280;55982;51.476;7.552;2023-02-20T05:08:46;100452.44;;;5.52;100.00
68941;BME280;55982;51.476;7.552;2023-02-20T05:11:11;100438.59;;;5.53;100.00
68941;BME280;55982;51.476;7.552;2023-02-20T05:13:36;100431.66;;;5.58;100.00
68941;BME280;55982;51.476;7.552;2023-02-20T05:16:02;100439.44;;;5.62;100.00
68941;BME280;55982;51.476;7.552;2023-02-20T05:18:27;100435.97;;;5.66;100.00
68941;BME280;55982;51.476;7.552;2023-02-20T05:20:53;100429.06;;;5.62;100.00
68941;BME280;55982;51.476;7.552;2023-02-20T05:23:37;100435.13;;;5.62;100.00
68941;BME280;55982;51.476;7.552;2023-02-20T05:26:02;100422.13;;;5.67;100.00
68941;BME280;55982;51.476;7.552;2023-02-20T05:28:27;100441.16;;;5.66;100.00
68941;BME280;55982;51.476;7.552;2023-02-20T05:30:53;100439.44;;;5.62;100.00
68941;BME280;55982;51.476;7.552;2023-02-20T05:33:18;100435.94;;;5.69;100.00
68941;BME280;55982;51.476;7.552;2023-02-20T05:35:43;100434.25;;;5.65;100.00
68941;BME280;55982;51.476;7.552;2023-02-20T05:38:08;100437.72;;;5.61;100.00
68941;BME280;55982;51.476;7.552;2023-02-20T05:40:33;100430.78;;;5.59;100.00
68941;BME280;55982;51.476;7.552;2023-02-20T05:42:59;100431.69;;;5.57;100.00
68941;BME280;55982;51.476;7.552;2023-02-20T05:45:24;100424.78;;;5.53;100.00
68941;BME280;55982;51.476;7.552;2023-02-20T05:47:49;100423.03;;;5.50;100.00
68941;BME280;55982;51.476;7.552;2023-02-20T05:50:14;100423.03;;;5.52;100.00
68941;BME280;55982;51.476;7.552;2023-02-20T05:52:40;100423.91;;;5.52;100.00
68941;BME280;55982;51.476;7.552;2023-02-20T05:55:05;100411.75;;;5.57;100.00
68941;BME280;55982;51.476;7.552;2023-02-20T05:57:30;100410.88;;;5.62;100.00
68941;BME280;55982;51.476;7.552;2023-02-20T05:59:56;100409.16;;;5.59;100.00
68941;BME280;55982;51.476;7.552;2023-02-20T06:02:21;100403.97;;;5.61;100.00
68941;BME280;55982;51.476;7.552;2023-02-20T06:04:46;100407.41;;;5.61;100.00
68941;BME280;55982;51.476;7.552;2023-02-20T06:07:11;100397.91;;;5.62;100.00
68941;BME280;55982;51.476;7.552;2023-02-20T06:09:40;100407.41;;;5.61;100.00
68941;BME280;55982;51.476;7.552;2023-02-20T06:12:05;100410.03;;;5.59;100.00
68941;BME280;55982;51.476;7.552;2023-02-20T06:14:31;100397.94;;;5.58;100.00
68941;BME280;55982;51.476;7.552;2023-02-20T06:16:56;100400.53;;;5.60;100.00
68941;BME280;55982;51.476;7.552;2023-02-20T06:19:22;100402.25;;;5.59;100.00
68941;BME280;55982;51.476;7.552;2023-02-20T06:21:48;100399.66;;;5.63;100.00
68941;BME280;55982;51.476;7.552;2023-02-20T06:24:14;100406.56;;;5.64;100.00
68941;BME280;55982;51.476;7.552;2023-02-20T06:26:42;100403.94;;;5.65;100.00
68941;BME280;55982;51.476;7.552;2023-02-20T06:29:08;100411.75;;;5.64;100.00
68941;BME280;55982;51.476;7.552;2023-02-20T06:31:33;100399.63;;;5.66;100.00
68941;BME280;55982;51.476;7.552;2023-02-20T06:33:59;100396.19;;;5.67;100.00
68941;BME280;55982;51.476;7.552;2023-02-20T06:36:28;100397.84;;;5.71;100.00
68941;BME280;55982;51.476;7.552;2023-02-20T06:38:54;100408.25;;;5.74;100.00
68941;BME280;55982;51.476;7.552;2023-02-20T06:41:20;100396.09;;;5.79;100.00
68941;BME280;55982;51.476;7.552;2023-02-20T06:43:45;100411.69;;;5.73;100.00
68941;BME280;55982;51.476;7.552;2023-02-20T06:46:10;100426.41;;;5.71;100.00
68941;BME280;55982;51.476;7.552;2023-02-20T06:48:49;100426.44;;;5.68;100.00
68941;BME280;55982;51.476;7.552;2023-02-20T06:51:19;100426.41;;;5.75;100.00
68941;BME280;55982;51.476;7.552;2023-02-20T06:53:44;100456.69;;;5.78;100.00
68941;BME280;55982;51.476;7.552;2023-02-20T06:56:10;100443.72;;;5.85;100.00
68941;BME280;55982;51.476;7.552;2023-02-20T06:58:39;100450.63;;;5.88;100.00
68941;BME280;55982;51.476;7.552;2023-02-20T07:01:04;100463.59;;;5.91;100.00
68941;BME280;55982;51.476;7.552;2023-02-20T07:03:30;100472.22;;;5.96;100.00
68941;BME280;55982;51.476;7.552;2023-02-20T07:05:55;100478.28;;;5.98;100.00
68941;BME280;55982;51.476;7.552;2023-02-20T07:08:20;100475.69;;;5.95;100.00
68941;BME280;55982;51.476;7.552;2023-02-20T07:10:45;100472.25;;;5.93;100.00
68941;BME280;55982;51.476;7.552;2023-02-20T07:13:10;100473.09;;;5.92;100.00
68941;BME280;55982;51.476;7.552;2023-02-20T07:15:36;100460.97;;;5.94;100.00
68941;BME280;55982;51.476;7.552;2023-02-20T07:18:01;100460.13;;;5.95;100.00
68941;BME280;55982;51.476;7.552;2023-02-20T07:20:27;100468.78;;;5.91;100.00
68941;BME280;55982;51.476;7.552;2023-02-20T07:22:52;100472.25;;;5.87;100.00
68941;BME280;55982;51.476;7.552;2023-02-20T07:25:18;100476.59;;;5.88;100.00
68941;BME280;55982;51.476;7.552;2023-02-20T07:27:44;100459.28;;;5.91;100.00
68941;BME280;55982;51.476;7.552;2023-02-20T07:30:09;100468.81;;;5.85;100.00
68941;BME280;55982;51.476;7.552;2023-02-20T07:32:35;100466.22;;;5.83;100.00
68941;BME280;55982;51.476;7.552;2023-02-20T07:35:00;100463.63;;;5.85;100.00
68941;BME280;55982;51.476;7.552;2023-02-20T07:37:25;100472.28;;;5.84;100.00
68941;BME280;55982;51.476;7.552;2023-02-20T07:39:50;100456.72;;;5.84;100.00
68941;BME280;55982;51.476;7.552;2023-02-20T07:42:16;100460.13;;;5.83;100.00
68941;BME280;55982;51.476;7.552;2023-02-20T07:44:42;100468.78;;;5.79;100.00
68941;BME280;55982;51.476;7.552;2023-02-20T07:47:08;100465.31;;;5.81;100.00
68941;BME280;55982;51.476;7.552;2023-02-20T07:49:33;100457.53;;;5.81;100.00
68941;BME280;55982;51.476;7.552;2023-02-20T07:51:58;100469.69;;;5.84;100.00
68941;BME280;55982;51.476;7.552;2023-02-20T07:54:24;100465.31;;;5.92;100.00
68941;BME280;55982;51.476;7.552;2023-02-20T07:56:51;100468.78;;;5.92;100.00
68941;BME280;55982;51.476;7.552;2023-02-20T07:59:16;100455.78;;;5.92;100.00
68941;BME280;55982;51.476;7.552;2023-02-20T08:01:41;100470.47;;;6.01;100.00
68941;BME280;55982;51.476;7.552;2023-02-20T08:04:08;100475.59;;;6.13;100.00
68941;BME280;55982;51.476;7.552;2023-02-20T08:06:33;100476.38;;;6.31;100.00
68941;BME280;55982;51.476;7.552;2023-02-20T08:08:58;100481.56;;;6.33;100.00
68941;BME280;55982;51.476;7.552;2023-02-20T08:11:24;100468.50;;;6.42;100.00
68941;BME280;55982;51.476;7.552;2023-02-20T08:13:49;100480.63;;;6.49;100.00
68941;BME280;55982;51.476;7.552;2023-02-20T08:16:14;100475.31;;;6.61;100.00
68941;BME280;55982;51.476;7.552;2023-02-20T08:18:40;100475.25;;;6.73;100.00
68941;BME280;55982;51.476;7.552;2023-02-20T08:21:05;100468.41;;;6.60;100.00
68941;BME280;55982;51.476;7.552;2023-02-20T08:23:30;100466.66;;;6.62;100.00
68941;BME280;55982;51.476;7.552;2023-02-20T08:25:55;100469.22;;;6.67;100.00
68941;BME280;55982;51.476;7.552;2023-02-20T08:28:21;100469.25;;;6.62;100.00
68941;BME280;55982;51.476;7.552;2023-02-20T08:30:46;100457.13;;;6.60;100.00
68941;BME280;55982;51.476;7.552;2023-02-20T08:33:11;100468.41;;;6.60;100.00
68941;BME280;55982;51.476;7.552;2023-02-20T08:35:36;100454.53;;;6.61;100.00
68941;BME280;55982;51.476;7.552;2023-02-20T08:38:02;100474.41;;;6.67;100.00
68941;BME280;55982;51.476;7.552;2023-02-20T08:40:28;100464.84;;;6.73;100.00
68941;BME280;55982;51.476;7.552;2023-02-20T08:42:53;100463.16;;;6.66;100.00
68941;BME280;55982;51.476;7.552;2023-02-20T08:45:18;100444.16;;;6.55;100.00
68941;BME280;55982;51.476;7.552;2023-02-20T08:47:43;100456.25;;;6.62;100.00
68941;BME280;55982;51.476;7.552;2023-02-20T08:50:09;100457.19;;;6.52;100.00
68941;BME280;55982;51.476;7.552;2023-02-20T08:52:34;100447.63;;;6.60;100.00
68941;BME280;55982;51.476;7.552;2023-02-20T08:54:59;100449.28;;;6.70;100.00
68941;BME280;55982;51.476;7.552;2023-02-20T08:57:25;100442.22;;;6.84;100.00
68941;BME280;55982;51.476;7.552;2023-02-20T08:59:50;100437.81;;;6.92;100.00
68941;BME280;55982;51.476;7.552;2023-02-20T09:02:20;100429.13;;;6.95;100.00
68941;BME280;55982;51.476;7.552;2023-02-20T09:04:46;100431.94;;;6.72;100.00
68941;BME280;55982;51.476;7.552;2023-02-20T09:07:12;100431.00;;;6.78;100.00
68941;BME280;55982;51.476;7.552;2023-02-20T09:09:37;100416.28;;;6.75;100.00
68941;BME280;55982;51.476;7.552;2023-02-20T09:12:03;100427.63;;;6.65;100.00
68941;BME280;55982;51.476;7.552;2023-02-20T09:14:28;100431.06;;;6.72;100.00
68941;BME280;55982;51.476;7.552;2023-02-20T09:16:53;100428.22;;;7.00;100.00
68941;BME280;55982;51.476;7.552;2023-02-20T09:19:19;100429.91;;;7.04;100.00
68941;BME280;55982;51.476;7.552;2023-02-20T09:21:46;100442.13;;;6.96;100.00
68941;BME280;55982;51.476;7.552;2023-02-20T09:24:11;100424.91;;;6.83;100.00
68941;BME280;55982;51.476;7.552;2023-02-20T09:26:36;100437.91;;;6.82;100.00
68941;BME280;55982;51.476;7.552;2023-02-20T09:29:01;100431.75;;;6.90;100.00
68941;BME280;55982;51.476;7.552;2023-02-20T09:31:27;100436.97;;;6.93;100.00
68941;BME280;55982;51.476;7.552;2023-02-20T09:33:52;100440.38;;;6.98;100.00
68941;BME280;55982;51.476;7.552;2023-02-20T09:36:17;100439.56;;;6.93;100.00
68941;BME280;55982;51.476;7.552;2023-02-20T09:38:42;100438.75;;;6.82;100.00
68941;BME280;55982;51.476;7.552;2023-02-20T09:41:13;100393.81;;;6.68;100.00
68941;BME280;55982;51.476;7.552;2023-02-20T09:43:55;100432.06;;;6.54;100.00
68941;BME280;55982;51.476;7.552;2023-02-20T09:46:25;100432.91;;;6.56;100.00
68941;BME280;55982;51.476;7.552;2023-02-20T09:51:20;100438.94;;;6.61;100.00
68941;BME280;55982;51.476;7.552;2023-02-20T09:53:56;100438.00;;;6.67;100.00
68941;BME280;55982;51.476;7.552;2023-02-20T09:56:27;100446.56;;;6.84;100.00
68941;BME280;55982;51.476;7.552;2023-02-20T09:58:57;100431.94;;;6.72;100.00
68941;BME280;55982;51.476;7.552;2023-02-20T10:01:24;100427.69;;;6.61;100.00
68941;BME280;55982;51.476;7.552;2023-02-20T10:06:16;100423.31;;;6.64;100.00
68941;BME280;55982;51.476;7.552;2023-02-20T10:08:42;100419.81;;;6.68;100.00
68941;BME280;55982;51.476;7.552;2023-02-20T10:11:07;100421.41;;;6.84;100.00
68941;BME280;55982;51.476;7.552;2023-02-20T10:13:49;100426.59;;;6.87;100.00
68941;BME280;55982;51.476;7.552;2023-02-20T10:21:17;100417.53;;;7.27;100.00
68941;BME280;55982;51.476;7.552;2023-02-20T10:23:47;100415.94;;;7.14;100.00
68941;BME280;55982;51.476;7.552;2023-02-20T10:28:45;100409.94;;;7.08;100.00
68941;BME280;55982;51.476;7.552;2023-02-20T10:33:46;100412.41;;;7.21;100.00
68941;BME280;55982;51.476;7.552;2023-02-20T10:38:43;100401.88;;;7.30;100.00
68941;BME280;55982;51.476;7.552;2023-02-20T10:41:17;100394.69;;;7.54;100.00
68941;BME280;55982;51.476;7.552;2023-02-20T10:43:52;100393.81;;;7.53;100.00
68941;BME280;55982;51.476;7.552;2023-02-20T10:46:37;100398.19;;;7.53;100.00
68941;BME280;55982;51.476;7.552;2023-02-20T10:49:05;100403.47;;;7.43;100.00
68941;BME280;55982;51.476;7.552;2023-02-20T10:51:33;100407.84;;;7.40;100.00
68941;BME280;55982;51.476;7.552;2023-02-20T10:54:36;100399.19;;;7.38;100.00
68941;BME280;55982;51.476;7.552;2023-02-20T10:57:03;100419.03;;;7.50;100.00
68941;BME280;55982;51.476;7.552;2023-02-20T11:01:55;100406.25;;;7.27;100.00
68941;BME280;55982;51.476;7.552;2023-02-20T11:04:29;100403.47;;;7.43;100.00
68941;BME280;55982;51.476;7.552;2023-02-20T11:07:17;100375.78;;;7.39;100.00
68941;BME280;55982;51.476;7.552;2023-02-20T11:09:46;100389.47;;;7.57;100.00
68941;BME280;55982;51.476;7.552;2023-02-20T11:12:29;100377.31;;;7.56;100.00
68941;BME280;55982;51.476;7.552;2023-02-20T11:14:55;100377.16;;;7.68;100.00
68941;BME280;55982;51.476;7.552;2023-02-20T11:17:24;100361.59;;;7.62;100.00
68941;BME280;55982;51.476;7.552;2023-02-20T11:19:52;100351.25;;;7.56;100.00
68941;BME280;55982;51.476;7.552;2023-02-20T11:22:36;100335.66;;;7.56;100.00
68941;BME280;55982;51.476;7.552;2023-02-20T11:25:22;100332.88;;;7.69;100.00
68941;BME280;55982;51.476;7.552;2023-02-20T11:27:50;100310.78;;;7.96;100.00
68941;BME280;55982;51.476;7.552;2023-02-20T11:32:42;100312.28;;;8.12;100.00
68941;BME280;55982;51.476;7.552;2023-02-20T11:37:39;100315.75;;;8.11;100.00
68941;BME280;55982;51.476;7.552;2023-02-20T11:40:13;100337.59;;;8.04;100.00
68941;BME280;55982;51.476;7.552;2023-02-20T11:42:39;100343.69;;;8.03;100.00
68941;BME280;55982;51.476;7.552;2023-02-20T11:45:14;100336.75;;;8.02;100.00
68941;BME280;55982;51.476;7.552;2023-02-20T11:47:40;100361.13;;;7.98;100.00
68941;BME280;55982;51.476;7.552;2023-02-20T11:52:37;100348.91;;;8.03;100.00
68941;BME280;55982;51.476;7.552;2023-02-20T11:55:11;100361.25;;;7.89;100.00
68941;BME280;55982;51.476;7.552;2023-02-20T11:57:42;100378.66;;;7.84;100.00
68941;BME280;55982;51.476;7.552;2023-02-20T12:05:19;100380.56;;;7.73;100.00
68941;BME280;55982;51.476;7.552;2023-02-20T12:07:53;100380.56;;;7.73;100.00
68941;BME280;55982;51.476;7.552;2023-02-20T12:10:30;100380.63;;;7.67;100.00
68941;BME280;55982;51.476;7.552;2023-02-20T12:12:59;100384.06;;;7.72;100.00
68941;BME280;55982;51.476;7.552;2023-02-20T12:15:25;100385.91;;;7.62;100.00
68941;BME280;55982;51.476;7.552;2023-02-20T12:20:20;100385.75;;;7.76;100.00
68941;BME280;55982;51.476;7.552;2023-02-20T12:25:35;100395.41;;;7.66;100.00
68941;BME280;55982;51.476;7.552;2023-02-20T12:35:30;100379.09;;;7.51;100.00
68941;BME280;55982;51.476;7.552;2023-02-20T13:00:52;100309.19;;;7.86;100.00
68941;BME280;55982;51.476;7.552;2023-02-20T13:03:19;100286.50;;;7.94;100.00
68941;BME280;55982;51.476;7.552;2023-02-20T13:05:45;100291.22;;;8.27;100.00
68941;BME280;55982;51.476;7.552;2023-02-20T13:08:16;100292.81;;;8.34;100.00
68941;BME280;55982;51.476;7.552;2023-02-20T13:10:47;100285.94;;;8.30;100.00
68941;BME280;55982;51.476;7.552;2023-02-20T13:13:14;100272.06;;;8.28;100.00
68941;BME280;55982;51.476;7.552;2023-02-20T13:15:55;100265.28;;;8.18;100.00
68941;BME280;55982;51.476;7.552;2023-02-20T13:18:27;100269.38;;;8.36;100.00
68941;BME280;55982;51.476;7.552;2023-02-20T13:21:19;100260.06;;;8.18;100.00
68941;BME280;55982;51.476;7.552;2023-02-20T13:23:42;100260.16;;;8.12;100.00
68941;BME280;55982;51.476;7.552;2023-02-20T13:26:53;100275.88;;;8.06;100.00
68941;BME280;55982;51.476;7.552;2023-02-20T13:28:53;100283.69;;;8.07;100.00
68941;BME280;55982;51.476;7.552;2023-02-20T13:33:44;100274.41;;;7.90;100.00
68941;BME280;55982;51.476;7.552;2023-02-20T13:36:17;100275.28;;;7.89;100.00
68941;BME280;55982;51.476;7.552;2023-02-20T13:46:59;100272.59;;;7.95;100.00
68941;BME280;55982;51.476;7.552;2023-02-20T13:54:58;100276.22;;;7.85;100.00
68941;BME280;55982;51.476;7.552;2023-02-20T13:57:23;100260.66;;;7.82;100.00
68941;BME280;55982;51.476;7.552;2023-02-20T13:59:53;100284.72;;;7.96;100.00
68941;BME280;55982;51.476;7.552;2023-02-20T14:02:20;100267.56;;;7.83;100.00
68941;BME280;55982;51.476;7.552;2023-02-20T14:07:26;100293.66;;;7.80;100.00
68941;BME280;55982;51.476;7.552;2023-02-20T14:09:59;100272.03;;;7.75;100.00
68941;BME280;55982;51.476;7.552;2023-02-20T14:12:24;100262.53;;;7.71;100.00
68941;BME280;55982;51.476;7.552;2023-02-20T14:14:49;100264.38;;;7.63;100.00
68941;BME280;55982;51.476;7.552;2023-02-20T14:17:17;100260.91;;;7.64;100.00
68941;BME280;55982;51.476;7.552;2023-02-20T14:19:46;100240.03;;;7.67;100.00
68941;BME280;55982;51.476;7.552;2023-02-20T14:22:31;100262.72;;;7.57;100.00
68941;BME280;55982;51.476;7.552;2023-02-20T14:27:30;100276.59;;;7.58;100.00
68941;BME280;55982;51.476;7.552;2023-02-20T14:32:30;100243.75;;;7.51;100.00
68941;BME280;55982;51.476;7.552;2023-02-20T14:34:58;100257.59;;;7.53;100.00
68941;BME280;55982;51.476;7.552;2023-02-20T14:37:35;100262.03;;;7.46;100.00
68941;BME280;55982;51.476;7.552;2023-02-20T14:42:36;100272.47;;;7.41;100.00
68941;BME280;55982;51.476;7.552;2023-02-20T14:45:04;100273.38;;;7.40;100.00
68941;BME280;55982;51.476;7.552;2023-02-20T14:47:29;100256.06;;;7.39;100.00
68941;BME280;55982;51.476;7.552;2023-02-20T14:50:16;100269.94;;;7.38;100.00
68941;BME280;55982;51.476;7.552;2023-02-20T14:52:41;100276.75;;;7.49;100.00